NCAR-RAP Real-Time Weather Data

Output produced by METARs form (10 April 2020  07:02 UTC)
found at http://weather.rap.ucar.edu/surface/
 
KAVP 100654Z 00000KT 10SM FEW012 SCT035 BKN060 02/M01 A2937 RMK AO2 SNE0555B14E46 SLP949 P0000 T00171011